Time;durP1;ratioP1;P1;durP2;ratioP2;P2;SDS_P1;SDS_P2;PMS_P1;PMS_P2;Temp;Humidity;BMP_temperature;BMP_pressure;BME280_temperature;BME280_humidity;BME280_pressure;Samples;Min_cycle;Max_cycle;Signal;HPM_P1;HPM_P2
2022/11/02 00:01:39;;;;;;;22.27;3.55;;;8.30;99.90;;;;;;5066625;28;20028;-82
2022/11/02 00:04:04;;;;;;;11.23;3.55;;;8.30;99.90;;;;;;5056549;28;20036;-82
2022/11/02 00:06:30;;;;;;;16.65;3.20;;;8.40;99.90;;;;;;5083099;28;20498;-82
2022/11/02 00:08:56;;;;;;;15.35;2.97;;;8.50;99.90;;;;;;5055770;28;20407;-81
2022/11/02 00:11:21;;;;;;;10.10;3.10;;;8.50;99.90;;;;;;5078910;28;20445;-82
2022/11/02 00:13:47;;;;;;;13.55;2.70;;;8.50;99.90;;;;;;5063284;28;20033;-81
2022/11/02 00:16:16;;;;;;;15.60;3.15;;;8.60;99.90;;;;;;5066985;28;20031;-81
2022/11/02 00:18:43;;;;;;;15.10;3.90;;;8.60;99.90;;;;;;5072966;28;20033;-82
2022/11/02 00:21:11;;;;;;;10.98;2.90;;;8.60;99.90;;;;;;5058135;28;20161;-81
2022/11/02 00:23:39;;;;;;;22.13;3.20;;;8.60;99.90;;;;;;5056637;28;20472;-82
2022/11/02 00:26:04;;;;;;;19.20;3.47;;;8.40;99.90;;;;;;5075653;28;20024;-82
2022/11/02 00:28:30;;;;;;;15.30;3.63;;;8.40;99.90;;;;;;5059690;28;20079;-82
2022/11/02 00:30:56;;;;;;;13.27;3.47;;;8.30;99.90;;;;;;5075848;28;20032;-82
2022/11/02 00:33:22;;;;;;;21.17;3.38;;;8.20;99.90;;;;;;5084914;28;20059;-82
2022/11/02 00:35:48;;;;;;;13.50;3.40;;;8.20;99.90;;;;;;5078203;28;20056;-82
2022/11/02 00:38:13;;;;;;;17.15;2.95;;;8.10;99.90;;;;;;5061431;28;20584;-81
2022/11/02 00:40:39;;;;;;;17.02;4.35;;;8.10;99.90;;;;;;5059824;28;20033;-82
2022/11/02 00:43:36;;;;;;;18.08;3.55;;;8.00;99.90;;;;;;5078948;28;20078;-82
2022/11/02 00:46:03;;;;;;;10.73;3.28;;;8.00;99.90;;;;;;5055288;28;20018;-82
2022/11/02 00:48:30;;;;;;;14.95;3.83;;;8.00;99.90;;;;;;5062219;28;20032;-81
2022/11/02 00:50:56;;;;;;;16.83;4.20;;;8.00;99.90;;;;;;5081983;28;20024;-82
2022/11/02 00:53:24;;;;;;;23.42;4.30;;;8.10;99.90;;;;;;5074612;28;20487;-82
2022/11/02 00:55:52;;;;;;;15.88;4.47;;;8.00;99.90;;;;;;5073592;28;20032;-82
2022/11/02 00:58:19;;;;;;;17.52;4.85;;;8.00;99.90;;;;;;5064460;28;20059;-82
2022/11/02 01:00:45;;;;;;;16.88;4.40;;;8.00;99.90;;;;;;5067289;28;20081;-82
2022/11/02 01:03:10;;;;;;;16.83;4.93;;;8.00;99.90;;;;;;5071806;28;20480;-82
2022/11/02 01:05:36;;;;;;;15.20;4.38;;;7.90;99.90;;;;;;5070846;28;20118;-81
2022/11/02 01:08:03;;;;;;;14.15;4.97;;;7.80;99.90;;;;;;5077017;28;20028;-82
2022/11/02 01:10:29;;;;;;;24.42;5.32;;;7.80;99.90;;;;;;5057342;28;20035;-81
2022/11/02 01:13:20;;;;;;;23.23;6.28;;;7.60;99.90;;;;;;5080384;28;20471;-82
2022/11/02 01:15:46;;;;;;;20.67;5.32;;;7.60;99.90;;;;;;5077167;28;20433;-82
2022/11/02 01:18:11;;;;;;;20.90;5.38;;;7.60;99.90;;;;;;5065059;28;20042;-81
2022/11/02 01:20:37;;;;;;;14.73;5.15;;;7.50;99.90;;;;;;5061012;28;20124;-81
2022/11/02 01:23:03;;;;;;;16.20;5.03;;;7.50;99.90;;;;;;5074239;28;20107;-82
2022/11/02 01:25:28;;;;;;;20.38;5.05;;;7.50;99.90;;;;;;5080292;28;20020;-82
2022/11/02 01:27:54;;;;;;;15.35;4.93;;;7.50;99.90;;;;;;5058121;28;20031;-82
2022/11/02 01:30:19;;;;;;;15.70;5.82;;;7.50;99.90;;;;;;5081106;28;20024;-81
2022/11/02 01:32:45;;;;;;;20.85;6.88;;;7.50;99.90;;;;;;5060909;28;20029;-81
2022/11/02 01:35:11;;;;;;;22.60;5.72;;;7.60;99.90;;;;;;5082466;28;20081;-82
2022/11/02 01:37:37;;;;;;;16.60;5.20;;;7.60;99.90;;;;;;5062145;28;20119;-82
2022/11/02 01:40:03;;;;;;;14.43;5.40;;;7.60;99.90;;;;;;5074795;28;20149;-82
2022/11/02 01:42:30;;;;;;;15.70;5.60;;;7.60;99.90;;;;;;5071946;28;20036;-81
2022/11/02 01:44:56;;;;;;;17.60;5.95;;;7.60;99.90;;;;;;5059584;28;20023;-82
2022/11/02 01:47:27;;;;;;;14.27;5.25;;;7.50;99.90;;;;;;5064415;28;20110;-82
2022/11/02 01:50:00;;;;;;;17.17;5.97;;;7.60;99.90;;;;;;5072230;28;20143;-82
2022/11/02 01:52:31;;;;;;;12.75;4.55;;;7.60;99.90;;;;;;5079736;28;20035;-82
2022/11/02 01:54:58;;;;;;;;;;;7.60;99.90;;;;;;5071030;28;20386;-82
2022/11/02 01:57:27;;;;;;;12.90;4.85;;;7.60;99.90;;;;;;5080490;28;19918;-82
2022/11/02 01:59:59;;;;;;;16.65;5.13;;;7.60;99.90;;;;;;5059014;28;20369;-82
2022/11/02 02:02:25;;;;;;;;;;;7.40;99.90;;;;;;5082812;28;20031;-81
2022/11/02 02:05:19;;;;;;;22.10;5.80;;;7.40;99.90;;;;;;5067664;28;19919;-81
2022/11/02 02:07:46;;;;;;;22.83;6.32;;;7.40;99.90;;;;;;5061193;28;20041;-82
2022/11/02 02:10:12;;;;;;;18.60;6.32;;;7.40;99.90;;;;;;5065759;28;20052;-82
2022/11/02 02:12:40;;;;;;;12.85;4.90;;;7.40;99.90;;;;;;5072707;28;20029;-82
2022/11/02 02:15:07;;;;;;;19.38;5.68;;;7.50;99.90;;;;;;5070766;28;20029;-82
2022/11/02 02:18:05;;;;;;;17.98;5.43;;;7.40;99.90;;;;;;5071859;28;20025;-82
2022/11/02 02:20:43;;;;;;;14.20;5.38;;;7.40;99.90;;;;;;5054536;28;20483;-82
2022/11/02 02:23:30;;;;;;;21.52;5.43;;;7.50;99.90;;;;;;5057508;28;20479;-82
2022/11/02 02:26:30;;;;;;;15.88;6.43;;;7.50;99.90;;;;;;5056622;28;20365;-82
2022/11/02 02:29:23;;;;;;;19.35;5.20;;;7.50;99.90;;;;;;5074861;28;20080;-82
2022/11/02 02:32:04;;;;;;;27.40;7.63;;;7.60;99.90;;;;;;5068189;28;20491;-81
2022/11/02 02:34:57;;;;;;;18.48;7.50;;;7.50;99.90;;;;;;5055174;28;20048;-82
2022/11/02 02:37:34;;;;;;;25.90;8.45;;;7.50;99.90;;;;;;5052009;28;20024;-82
2022/11/02 02:40:24;;;;;;;21.55;6.32;;;7.50;99.90;;;;;;5047173;28;20068;-82
2022/11/02 02:43:31;;;;;;;14.60;5.07;;;7.50;99.90;;;;;;5056222;28;20041;-82
2022/11/02 02:46:15;;;;;;;16.05;4.57;;;7.70;99.90;;;;;;5004620;28;20083;-82
2022/11/02 02:48:44;;;;;;;27.95;5.35;;;7.80;99.90;;;;;;5065743;28;20067;-82
2022/11/02 02:51:15;;;;;;;20.60;5.68;;;7.80;99.90;;;;;;5057270;28;20055;-81
2022/11/02 02:53:47;;;;;;;15.95;4.90;;;7.90;99.90;;;;;;5071002;28;20024;-82
2022/11/02 02:56:19;;;;;;;21.08;5.50;;;7.90;99.90;;;;;;5078366;28;20480;-82
2022/11/02 02:58:54;;;;;;;19.88;4.53;;;7.90;99.90;;;;;;5073150;28;20439;-81
2022/11/02 03:01:21;;;;;;;18.90;4.50;;;8.00;99.90;;;;;;5079886;28;20074;-81
2022/11/02 03:03:47;;;;;;;13.45;4.20;;;8.00;99.90;;;;;;5074220;28;20040;-82
2022/11/02 03:06:23;;;;;;;20.17;4.63;;;8.10;99.90;;;;;;5067294;28;20025;-81
2022/11/02 03:09:11;;;;;;;14.70;3.67;;;8.10;99.90;;;;;;5080284;28;20023;-82
2022/11/02 03:12:03;;;;;;;14.88;4.05;;;8.20;99.90;;;;;;5069775;28;20039;-81
2022/11/02 03:14:44;;;;;;;11.40;2.80;;;8.20;99.90;;;;;;5068285;28;20085;-82
2022/11/02 03:17:30;;;;;;;15.20;3.80;;;8.30;99.90;;;;;;5073614;28;20488;-82
2022/11/02 03:20:25;;;;;;;14.77;3.80;;;8.30;99.90;;;;;;5066891;28;20119;-82
2022/11/02 03:23:07;;;;;;;13.50;3.35;;;8.40;99.90;;;;;;5076807;28;20035;-82
2022/11/02 03:26:02;;;;;;;14.88;3.60;;;8.40;99.90;;;;;;5072782;28;20032;-82
2022/11/02 03:28:37;;;;;;;18.52;3.30;;;8.40;99.90;;;;;;5062364;28;20589;-82
2022/11/02 03:31:32;;;;;;;13.13;3.33;;;8.40;99.90;;;;;;5075617;28;20039;-82
2022/11/02 03:34:26;;;;;;;11.48;3.30;;;8.40;99.90;;;;;;5070459;28;20031;-81
2022/11/02 03:37:13;;;;;;;14.77;3.40;;;8.40;99.90;;;;;;5074264;28;20020;-82
2022/11/02 03:39:57;;;;;;;21.23;4.32;;;8.40;99.90;;;;;;5057092;28;20450;-82
2022/11/02 03:42:26;;;;;;;21.23;4.72;;;8.40;99.90;;;;;;5075288;28;20118;-82
2022/11/02 03:45:01;;;;;;;24.90;5.57;;;8.40;99.90;;;;;;5078465;28;20024;-82
2022/11/02 03:47:32;;;;;;;18.38;4.72;;;8.50;99.90;;;;;;5072998;28;20383;-82
2022/11/02 03:50:03;;;;;;;11.25;3.72;;;8.40;99.90;;;;;;5063578;28;20075;-82
2022/11/02 03:52:33;;;;;;;14.93;3.88;;;8.30;99.90;;;;;;5077526;28;20024;-82
2022/11/02 03:55:12;;;;;;;11.65;3.95;;;8.30;99.90;;;;;;5064456;28;20028;-81
2022/11/02 03:57:43;;;;;;;17.05;4.55;;;8.30;99.90;;;;;;5076526;28;20569;-82
2022/11/02 04:00:14;;;;;;;21.67;5.82;;;8.30;99.90;;;;;;5061466;28;20028;-81
2022/11/02 04:02:47;;;;;;;19.15;5.20;;;8.30;99.90;;;;;;5077432;28;20055;-82
2022/11/02 04:05:14;;;;;;;11.20;3.03;;;8.40;99.90;;;;;;5061811;28;20494;-82
2022/11/02 04:10:30;;;;;;;18.92;5.00;;;8.40;99.90;;;;;;5080487;28;20033;-82
2022/11/02 04:15:40;;;;;;;13.80;2.92;;;8.60;99.90;;;;;;5082395;28;20037;-81
2022/11/02 04:20:51;;;;;;;17.73;3.60;;;8.80;99.90;;;;;;5073334;28;20064;-82
2022/11/02 04:26:02;;;;;;;16.95;3.20;;;8.80;99.90;;;;;;5076807;28;20031;-82
2022/11/02 04:29:10;;;;;;;16.58;3.65;;;8.90;99.90;;;;;;5066187;28;20035;-82
2022/11/02 04:31:37;;;;;;;13.10;3.35;;;8.90;99.90;;;;;;5087269;28;20032;-82
2022/11/02 04:34:02;;;;;;;13.13;3.03;;;8.80;99.90;;;;;;5064689;28;20031;-82
2022/11/02 04:36:30;;;;;;;18.88;3.95;;;8.90;99.90;;;;;;5073188;28;20029;-82
2022/11/02 04:38:57;;;;;;;11.10;3.22;;;8.80;99.90;;;;;;5086669;28;20375;-82
2022/11/02 04:41:42;;;;;;;10.30;2.75;;;8.80;99.90;;;;;;5072145;28;20021;-82
2022/11/02 04:44:25;;;;;;;13.85;5.32;;;8.80;99.90;;;;;;5081437;28;20074;-82
2022/11/02 04:46:57;;;;;;;18.27;3.47;;;8.80;99.90;;;;;;5065595;28;20020;-82
2022/11/02 04:49:26;;;;;;;15.40;4.15;;;8.80;99.90;;;;;;5083176;28;20024;-82
2022/11/02 04:51:52;;;;;;;13.88;2.95;;;8.80;99.90;;;;;;5068690;28;20371;-81
2022/11/02 04:54:19;;;;;;;14.68;3.50;;;8.70;99.90;;;;;;5077209;28;20502;-82
2022/11/02 04:56:49;;;;;;;21.60;3.50;;;8.70;99.90;;;;;;5079526;28;20057;-82
2022/11/02 04:59:15;;;;;;;10.95;3.08;;;8.70;99.90;;;;;;5078897;28;20016;-82
2022/11/02 05:01:41;;;;;;;20.20;4.00;;;8.70;99.90;;;;;;5062534;28;20025;-82
2022/11/02 05:04:09;;;;;;;14.80;3.65;;;8.70;99.90;;;;;;5063032;28;20813;-83
2022/11/02 05:06:35;;;;;;;18.80;3.47;;;8.80;99.90;;;;;;5081635;28;20028;-82
2022/11/02 05:09:02;;;;;;;20.33;3.22;;;8.90;99.90;;;;;;5067030;28;20031;-82
2022/11/02 05:11:29;;;;;;;12.57;3.00;;;8.80;99.90;;;;;;5065242;28;20024;-82
2022/11/02 05:13:55;;;;;;;17.00;3.65;;;8.90;99.90;;;;;;5061242;28;20028;-82
2022/11/02 05:16:21;;;;;;;17.77;3.13;;;8.90;99.90;;;;;;5065774;28;20111;-82
2022/11/02 05:18:50;;;;;;;17.58;3.75;;;8.90;99.90;;;;;;5073619;28;20071;-82
2022/11/02 05:21:17;;;;;;;12.55;3.67;;;8.90;99.90;;;;;;5078044;28;20439;-82
2022/11/02 05:23:43;;;;;;;14.63;3.53;;;9.00;99.90;;;;;;5061227;28;20190;-82
2022/11/02 05:26:10;;;;;;;14.00;4.70;;;9.00;99.90;;;;;;5077391;28;20020;-82
2022/11/02 05:28:39;;;;;;;9.55;2.75;;;9.00;99.90;;;;;;5061661;28;20021;-82
2022/11/02 05:31:05;;;;;;;11.43;2.65;;;9.00;99.90;;;;;;5078870;28;20039;-82
2022/11/02 05:33:34;;;;;;;12.75;2.75;;;9.00;99.90;;;;;;5081648;28;20032;-82
2022/11/02 05:36:05;;;;;;;9.40;3.00;;;9.10;99.90;;;;;;5071678;28;20107;-83
2022/11/02 05:38:34;;;;;;;9.32;2.70;;;9.10;99.90;;;;;;5082416;28;20034;-82
2022/11/02 05:41:00;;;;;;;12.88;2.85;;;9.00;99.90;;;;;;5056804;28;20499;-82
2022/11/02 05:43:30;;;;;;;13.32;3.55;;;9.00;99.90;;;;;;5083115;28;20027;-82
2022/11/02 05:46:00;;;;;;;17.05;4.07;;;9.00;99.90;;;;;;5071402;28;20075;-82
2022/11/02 05:48:29;;;;;;;14.90;4.18;;;9.10;99.90;;;;;;5084245;28;20036;-82
2022/11/02 05:50:56;;;;;;;16.02;3.50;;;9.10;99.90;;;;;;5060962;28;20021;-82
2022/11/02 05:53:22;;;;;;;11.00;3.20;;;9.00;99.90;;;;;;5067854;28;20108;-82
2022/11/02 05:55:48;;;;;;;13.90;3.22;;;9.00;99.90;;;;;;5072384;28;20054;-82
2022/11/02 05:58:14;;;;;;;20.90;3.83;;;9.10;99.90;;;;;;5077289;28;20025;-82
2022/11/02 06:00:40;;;;;;;21.60;4.90;;;9.10;99.90;;;;;;5087746;28;20414;-83
2022/11/02 06:03:06;;;;;;;21.77;5.05;;;9.10;99.90;;;;;;5078273;28;20024;-82
2022/11/02 06:05:32;;;;;;;21.05;5.53;;;9.00;99.90;;;;;;5064590;28;20391;-83
2022/11/02 06:07:59;;;;;;;13.95;3.65;;;9.00;99.90;;;;;;5084238;28;20028;-82
2022/11/02 06:10:26;;;;;;;22.48;3.70;;;9.00;99.90;;;;;;5081434;28;20119;-83
2022/11/02 06:13:00;;;;;;;11.98;3.60;;;9.00;99.90;;;;;;5069907;28;20480;-82
2022/11/02 06:15:30;;;;;;;12.82;3.78;;;8.90;99.90;;;;;;5068551;28;20120;-85
2022/11/02 06:17:57;;;;;;;19.02;4.28;;;9.00;99.90;;;;;;5078432;28;20045;-84
2022/11/02 06:20:23;;;;;;;9.88;4.25;;;9.00;99.90;;;;;;5062623;28;20020;-85
2022/11/02 06:22:49;;;;;;;17.92;3.97;;;8.90;99.90;;;;;;5066657;28;20109;-85
2022/11/02 06:25:16;;;;;;;15.07;3.95;;;8.90;99.90;;;;;;5060757;28;20047;-86
2022/11/02 06:27:54;;;;;;;17.10;4.55;;;8.90;99.90;;;;;;5081335;28;20544;-85
2022/11/02 06:30:21;;;;;;;19.13;4.80;;;8.90;99.90;;;;;;5067736;28;20110;-85
2022/11/02 06:32:52;;;;;;;16.42;4.07;;;8.80;99.90;;;;;;5059922;28;20082;-85
2022/11/02 06:35:20;;;;;;;14.40;4.30;;;8.90;99.90;;;;;;5069516;28;20119;-85
2022/11/02 06:37:45;;;;;;;12.65;4.55;;;8.90;99.90;;;;;;5064952;28;20749;-85
2022/11/02 06:40:12;;;;;;;15.55;4.57;;;8.90;99.90;;;;;;5051035;28;20027;-85
2022/11/02 06:42:39;;;;;;;15.88;3.75;;;8.90;99.90;;;;;;5081947;28;20082;-85
2022/11/02 06:45:06;;;;;;;24.25;4.88;;;8.80;99.90;;;;;;5058805;28;20127;-84
2022/11/02 06:47:34;;;;;;;19.17;5.25;;;8.80;99.90;;;;;;5058028;28;20557;-85
2022/11/02 06:49:59;;;;;;;21.70;5.57;;;8.90;99.90;;;;;;5071486;28;20142;-85
2022/11/02 06:52:26;;;;;;;18.95;5.90;;;8.80;99.90;;;;;;5075963;28;20489;-85
2022/11/02 06:54:52;;;;;;;28.67;6.68;;;8.80;99.90;;;;;;5076469;28;20039;-86
2022/11/02 06:57:18;;;;;;;26.25;6.63;;;8.90;99.90;;;;;;5049845;28;20839;-86
2022/11/02 06:59:44;;;;;;;23.08;7.50;;;8.80;99.90;;;;;;5052909;28;20044;-86
2022/11/02 07:02:10;;;;;;;23.17;8.88;;;8.80;99.90;;;;;;5050090;28;20037;-86
2022/11/02 07:04:35;;;;;;;20.38;7.95;;;8.90;99.90;;;;;;5054478;28;20059;-85
2022/11/02 07:07:01;;;;;;;19.90;7.07;;;8.90;99.90;;;;;;5075484;28;20096;-85
2022/11/02 07:09:27;;;;;;;17.17;6.10;;;8.80;99.90;;;;;;5067788;28;20059;-85
2022/11/02 07:11:53;;;;;;;19.60;6.30;;;8.90;99.90;;;;;;5060822;28;20059;-86
2022/11/02 07:14:19;;;;;;;25.02;6.65;;;8.80;99.90;;;;;;5053545;28;20028;-85
2022/11/02 07:16:44;;;;;;;19.25;5.88;;;8.80;99.90;;;;;;5084423;28;20113;-86
2022/11/02 07:19:10;;;;;;;23.33;6.60;;;8.90;99.90;;;;;;5056256;28;20037;-86
2022/11/02 07:21:36;;;;;;;13.32;4.97;;;8.90;99.90;;;;;;5068242;28;20518;-86
2022/11/02 07:24:02;;;;;;;18.98;5.78;;;8.80;99.90;;;;;;5076010;28;20032;-86
2022/11/02 07:26:27;;;;;;;31.55;5.97;;;8.90;99.90;;;;;;5069008;28;20025;-86
2022/11/02 07:28:53;;;;;;;16.83;5.13;;;8.80;99.90;;;;;;5083950;28;20029;-85
2022/11/02 07:31:19;;;;;;;15.60;4.45;;;8.80;99.90;;;;;;5070170;28;20051;-86
2022/11/02 07:33:44;;;;;;;37.38;7.65;;;8.80;99.90;;;;;;5084148;28;20077;-85
2022/11/02 07:36:10;;;;;;;21.52;5.07;;;8.80;99.90;;;;;;5056024;28;20033;-86
2022/11/02 07:39:18;;;;;;;21.10;4.88;;;8.90;99.90;;;;;;5084605;28;20039;-86
2022/11/02 07:41:43;;;;;;;14.75;4.68;;;9.00;99.90;;;;;;5074107;28;20063;-86
2022/11/02 07:44:09;;;;;;;21.13;4.03;;;9.10;99.90;;;;;;5075649;28;20429;-86
2022/11/02 07:46:51;;;;;;;28.63;5.60;;;9.20;99.90;;;;;;5062579;28;20055;-86
2022/11/02 07:49:17;;;;;;;15.05;4.30;;;9.30;99.90;;;;;;5059863;28;20378;-85
2022/11/02 07:51:43;;;;;;;20.90;4.78;;;9.20;99.90;;;;;;5066851;28;20029;-86
2022/11/02 07:54:09;;;;;;;20.15;4.60;;;9.20;99.90;;;;;;5060612;28;20024;-84
2022/11/02 07:56:34;;;;;;;20.30;4.82;;;9.20;99.90;;;;;;5062577;28;20044;-86
2022/11/02 07:59:00;;;;;;;19.30;5.15;;;9.30;99.90;;;;;;5061426;28;20028;-86
2022/11/02 08:01:25;;;;;;;21.98;4.25;;;9.30;99.90;;;;;;5071839;28;20027;-86
2022/11/02 08:03:51;;;;;;;24.55;5.03;;;9.30;99.90;;;;;;5077583;28;20020;-86
2022/11/02 08:06:17;;;;;;;16.45;4.05;;;9.30;99.90;;;;;;5059902;28;20024;-86
2022/11/02 08:08:43;;;;;;;15.63;5.10;;;9.30;99.90;;;;;;5079051;28;20551;-85
2022/11/02 08:11:09;;;;;;;30.70;6.40;;;9.30;99.90;;;;;;5070490;28;20028;-85
2022/11/02 08:13:36;;;;;;;14.57;4.88;;;9.30;99.90;;;;;;5071439;28;20461;-86
2022/11/02 08:16:02;;;;;;;21.90;5.35;;;9.30;99.90;;;;;;5080423;28;20123;-85
2022/11/02 08:18:29;;;;;;;18.85;4.30;;;9.30;99.90;;;;;;5060783;28;20036;-85
2022/11/02 08:20:56;;;;;;;12.35;4.40;;;9.40;99.90;;;;;;5054103;28;20028;-85
2022/11/02 08:23:22;;;;;;;18.63;4.18;;;9.50;99.90;;;;;;5061779;28;20020;-85
2022/11/02 08:25:49;;;;;;;26.85;5.53;;;9.50;99.90;;;;;;5073000;28;20055;-85
2022/11/02 08:28:19;;;;;;;20.25;4.32;;;9.50;99.90;;;;;;5079116;28;20027;-85
2022/11/02 08:30:44;;;;;;;14.93;4.28;;;9.60;99.90;;;;;;5075336;28;20040;-85
2022/11/02 08:33:14;;;;;;;18.73;4.20;;;9.60;99.90;;;;;;5080155;28;20024;-85
2022/11/02 08:35:41;;;;;;;25.13;4.82;;;9.60;99.90;;;;;;5075345;28;20043;-85
2022/11/02 08:38:08;;;;;;;15.57;6.22;;;9.70;99.90;;;;;;5073855;28;20021;-85
2022/11/02 08:40:35;;;;;;;22.60;4.78;;;9.80;99.90;;;;;;5060986;28;20039;-85
2022/11/02 08:43:03;;;;;;;14.70;4.10;;;9.80;99.90;;;;;;5056742;28;20070;-85
2022/11/02 08:45:31;;;;;;;26.08;4.22;;;9.80;99.90;;;;;;5062168;28;20032;-85
2022/11/02 08:47:57;;;;;;;15.88;4.35;;;9.90;99.90;;;;;;5073445;28;20043;-85
2022/11/02 08:50:24;;;;;;;33.08;5.05;;;9.90;99.90;;;;;;5079537;28;20028;-86
2022/11/02 08:52:50;;;;;;;13.63;3.65;;;9.90;99.90;;;;;;5056709;28;20493;-85
2022/11/02 08:55:16;;;;;;;16.20;5.28;;;10.00;99.90;;;;;;5079316;28;20056;-85
2022/11/02 08:57:50;;;;;;;25.15;3.85;;;10.10;99.90;;;;;;5063049;28;20111;-85
2022/11/02 09:00:17;;;;;;;21.50;5.22;;;10.20;99.90;;;;;;5080569;28;20498;-85
2022/11/02 09:02:44;;;;;;;14.55;3.38;;;10.10;99.90;;;;;;5063868;28;20020;-85
2022/11/02 09:05:10;;;;;;;18.50;4.03;;;10.10;99.90;;;;;;5080854;28;20502;-85
2022/11/02 09:07:36;;;;;;;16.52;4.18;;;10.00;99.90;;;;;;5075803;28;20475;-85
2022/11/02 09:10:03;;;;;;;20.70;4.15;;;9.90;99.90;;;;;;5070417;28;20029;-85
2022/11/02 09:12:28;;;;;;;20.60;4.38;;;9.90;99.90;;;;;;5062329;28;20430;-85
2022/11/02 09:14:54;;;;;;;24.13;5.28;;;9.90;99.90;;;;;;5073399;28;20033;-86
2022/11/02 09:17:20;;;;;;;21.05;6.50;;;9.90;99.90;;;;;;5075422;28;20032;-85
2022/11/02 09:19:54;;;;;;;16.30;4.50;;;9.90;99.90;;;;;;5074763;28;20041;-85
2022/11/02 09:22:20;;;;;;;18.95;3.83;;;10.10;99.90;;;;;;5079199;28;20020;-85
2022/11/02 09:24:46;;;;;;;20.98;3.92;;;10.00;99.90;;;;;;5075828;28;20021;-85
2022/11/02 09:27:11;;;;;;;19.10;4.18;;;10.00;99.90;;;;;;5067809;28;20020;-85
2022/11/02 09:29:37;;;;;;;19.73;4.35;;;10.10;99.90;;;;;;5074068;28;20078;-86
2022/11/02 09:32:03;;;;;;;19.40;3.53;;;10.10;99.90;;;;;;5073413;28;20025;-85
2022/11/02 09:34:28;;;;;;;12.57;3.72;;;10.10;99.90;;;;;;5057639;28;20024;-85
2022/11/02 09:36:54;;;;;;;20.13;4.63;;;10.10;99.90;;;;;;5077039;28;20394;-86
2022/11/02 09:39:23;;;;;;;19.27;5.10;;;10.10;99.90;;;;;;5062929;28;20031;-85
2022/11/02 09:42:30;;;;;;;17.15;3.92;;;10.20;99.90;;;;;;5076342;28;20380;-85
2022/11/02 09:45:07;;;;;;;24.65;5.50;;;10.40;99.90;;;;;;5064460;28;20031;-85
2022/11/02 09:47:42;;;;;;;19.15;4.72;;;10.60;99.90;;;;;;5061276;28;20115;-86
2022/11/02 09:50:15;;;;;;;11.30;3.53;;;10.80;99.90;;;;;;5065420;28;20058;-85
2022/11/02 09:52:43;;;;;;;26.58;4.30;;;10.80;99.90;;;;;;5077664;28;20032;-85
2022/11/02 09:55:18;;;;;;;14.15;3.97;;;10.70;99.90;;;;;;5075574;28;20016;-85
2022/11/02 09:57:47;;;;;;;17.98;4.03;;;10.90;99.90;;;;;;5077828;28;20035;-85
2022/11/02 10:00:14;;;;;;;10.73;3.17;;;11.30;99.90;;;;;;5078720;28;20070;-84
2022/11/02 10:03:11;;;;;;;18.73;4.00;;;11.30;99.90;;;;;;5046688;28;20032;-85
2022/11/02 10:05:36;;;;;;;26.42;5.05;;;11.30;99.90;;;;;;5086300;28;20035;-85
2022/11/02 10:08:44;;;;;;;16.88;3.53;;;11.40;99.90;;;;;;5058607;28;20032;-85
2022/11/02 10:11:37;;;;;;;14.50;3.97;;;11.90;99.90;;;;;;5035535;28;20028;-85
2022/11/02 10:14:16;;;;;;;17.23;3.50;;;12.40;99.90;;;;;;5074510;28;20719;-86
2022/11/02 10:17:05;;;;;;;27.00;4.43;;;12.70;99.90;;;;;;5064326;28;20039;-86
2022/11/02 10:19:33;;;;;;;31.92;2.80;;;13.10;99.90;;;;;;5071321;28;20032;-86
2022/11/02 10:22:00;;;;;;;17.45;2.90;;;13.40;99.90;;;;;;5079128;28;20134;-86
2022/11/02 10:24:42;;;;;;;15.45;3.80;;;13.80;99.90;;;;;;5054123;28;20108;-86
2022/11/02 10:27:19;;;;;;;19.65;2.90;;;14.00;99.90;;;;;;5075290;28;20879;-86
2022/11/02 10:29:54;;;;;;;13.43;2.92;;;13.70;99.90;;;;;;5072293;28;20028;-85
2022/11/02 10:32:19;;;;;;;14.93;2.75;;;13.60;99.90;;;;;;5063559;28;20028;-86
2022/11/02 10:34:46;;;;;;;14.52;3.80;;;13.50;99.90;;;;;;5072498;28;20017;-86
2022/11/02 10:37:36;;;;;;;13.70;3.33;;;13.80;99.90;;;;;;5055665;28;20024;-86
2022/11/02 10:40:24;;;;;;;12.35;3.03;;;13.40;99.90;;;;;;5050374;28;20114;-86
2022/11/02 10:43:21;;;;;;;15.13;2.60;;;13.30;99.90;;;;;;5062853;28;20840;-86
2022/11/02 10:45:54;;;;;;;12.27;2.28;;;13.00;99.90;;;;;;5048182;28;20415;-86
2022/11/02 10:48:20;;;;;;;12.38;2.42;;;12.90;99.90;;;;;;5049213;28;20487;-84
2022/11/02 10:51:12;;;;;;;18.15;2.65;;;12.60;99.90;;;;;;5073360;28;20032;-84
2022/11/02 10:53:43;;;;;;;14.60;2.72;;;12.80;99.90;;;;;;5053284;28;20025;-85
2022/11/02 10:56:19;;;;;;;15.45;2.80;;;13.00;99.90;;;;;;5071831;28;20029;-84
2022/11/02 10:58:50;;;;;;;16.23;2.85;;;13.00;99.90;;;;;;5066755;28;20033;-84
2022/11/02 11:01:16;;;;;;;14.00;2.70;;;12.90;99.90;;;;;;5043859;28;20028;-84
2022/11/02 11:04:05;;;;;;;13.05;2.67;;;12.90;99.90;;;;;;5071223;28;20422;-85
2022/11/02 11:06:57;;;;;;;18.85;2.67;;;12.80;99.90;;;;;;5037886;28;20112;-84
2022/11/02 11:09:25;;;;;;;16.27;2.90;;;12.70;99.90;;;;;;5092590;28;20025;-85
2022/11/02 11:12:03;;;;;;;17.00;3.33;;;12.30;99.90;;;;;;5063750;28;20083;-85
2022/11/02 11:14:34;;;;;;;15.60;3.17;;;11.90;99.90;;;;;;5060299;28;20029;-84
2022/11/02 11:17:01;;;;;;;20.13;2.95;;;11.50;99.90;;;;;;5079465;28;20112;-84
2022/11/02 11:19:31;;;;;;;13.82;3.30;;;11.40;99.90;;;;;;5046816;28;20040;-84
2022/11/02 11:21:57;;;;;;;13.35;3.22;;;11.40;99.90;;;;;;5048395;28;20028;-85
2022/11/02 11:24:29;;;;;;;18.92;3.17;;;11.20;99.90;;;;;;5071413;28;20092;-85
2022/11/02 11:27:11;;;;;;;9.88;2.55;;;11.00;99.90;;;;;;5040652;28;20111;-85
2022/11/02 11:29:49;;;;;;;29.60;4.38;;;10.80;99.90;;;;;;5078709;28;20029;-85
2022/11/02 11:32:23;;;;;;;13.35;2.88;;;10.70;99.90;;;;;;5063125;28;20498;-85
2022/11/02 11:34:59;;;;;;;17.35;3.55;;;10.60;99.90;;;;;;5057748;28;20538;-85
2022/11/02 11:37:25;;;;;;;17.88;3.33;;;11.10;99.90;;;;;;5036682;28;20029;-85
2022/11/02 11:39:57;;;;;;;14.18;2.90;;;11.30;99.90;;;;;;5041273;28;20863;-84
2022/11/02 11:42:26;;;;;;;15.95;3.15;;;11.30;99.90;;;;;;5066610;28;20028;-85
2022/11/02 11:45:01;;;;;;;10.63;2.50;;;11.20;99.90;;;;;;5046077;28;20042;-85
2022/11/02 11:47:31;;;;;;;9.43;2.45;;;11.40;99.90;;;;;;5057996;28;20029;-85
2022/11/02 11:50:01;;;;;;;14.65;2.67;;;11.50;99.90;;;;;;5050879;28;20086;-85
2022/11/02 11:52:32;;;;;;;14.35;2.88;;;11.40;99.90;;;;;;5062949;28;20024;-85
2022/11/02 11:55:00;;;;;;;13.90;2.90;;;11.40;99.90;;;;;;5063548;28;20025;-85
2022/11/02 11:57:31;;;;;;;23.70;4.45;;;11.40;99.90;;;;;;5064464;28;20459;-85
2022/11/02 12:00:00;;;;;;;11.40;2.78;;;11.50;99.90;;;;;;5042274;28;20541;-85
2022/11/02 12:02:35;;;;;;;20.95;2.70;;;11.60;99.90;;;;;;5065017;28;20182;-85
2022/11/02 12:05:14;;;;;;;20.60;3.78;;;11.70;99.90;;;;;;5057027;28;20056;-85
2022/11/02 12:08:01;;;;;;;15.05;3.75;;;11.70;99.90;;;;;;5044129;28;20531;-85
2022/11/02 12:10:55;;;;;;;20.05;3.80;;;11.50;99.90;;;;;;5041806;28;20041;-85
2022/11/02 12:13:39;;;;;;;16.90;3.10;;;11.60;99.90;;;;;;5044915;28;20056;-85
2022/11/02 12:16:10;;;;;;;18.63;3.22;;;12.00;99.90;;;;;;5056801;28;20039;-86
2022/11/02 12:18:56;;;;;;;11.30;3.22;;;12.90;99.90;;;;;;5049822;28;20033;-85
2022/11/02 12:21:30;;;;;;;27.50;4.70;;;13.10;99.90;;;;;;5067923;28;20102;-84
2022/11/02 12:24:42;;;;;;;10.57;3.10;;;13.10;99.90;;;;;;5055629;28;20475;-85
2022/11/02 12:28:07;;;;;;;30.45;4.18;;;13.50;99.90;;;;;;5071037;28;20472;-86
2022/11/02 12:31:09;;;;;;;14.63;3.55;;;13.70;99.90;;;;;;5033641;28;20063;-85
2022/11/02 12:34:30;;;;;;;11.45;3.00;;;13.10;99.90;;;;;;5040762;28;20480;-85
2022/11/02 12:36:58;;;;;;;16.45;3.92;;;12.60;99.90;;;;;;5039640;28;20028;-86
2022/11/02 12:40:12;;;;;;;17.25;3.00;;;12.40;99.90;;;;;;5036557;28;20500;-85
2022/11/02 12:42:56;;;;;;;12.32;2.58;;;12.40;99.90;;;;;;5062249;28;20435;-85
2022/11/02 12:45:42;;;;;;;19.70;2.97;;;12.50;99.90;;;;;;5050242;28;20021;-86
2022/11/02 12:48:13;;;;;;;22.67;2.95;;;12.70;99.90;;;;;;5084434;28;20020;-85
2022/11/02 12:51:01;;;;;;;19.23;3.85;;;12.90;99.90;;;;;;5050339;28;20039;-85
2022/11/02 12:53:45;;;;;;;24.30;7.97;;;13.10;99.90;;;;;;5063298;28;20100;-85
2022/11/02 12:56:18;;;;;;;48.90;17.88;;;13.20;99.90;;;;;;5057194;28;20119;-85
2022/11/02 12:58:43;;;;;;;45.42;13.02;;;13.20;99.90;;;;;;5054018;28;20033;-85
2022/11/02 13:01:26;;;;;;;35.00;10.30;;;12.90;99.90;;;;;;5044354;28;20032;-85
2022/11/02 13:04:14;;;;;;;26.88;3.58;;;12.80;99.90;;;;;;5096560;28;20767;-85
2022/11/02 13:06:43;;;;;;;18.52;2.72;;;12.50;99.90;;;;;;5048189;28;20476;-85
2022/11/02 13:09:21;;;;;;;15.60;2.78;;;12.40;99.90;;;;;;5065015;28;20464;-85
2022/11/02 13:12:25;;;;;;;13.00;2.35;;;12.20;99.90;;;;;;5070790;28;20036;-85
2022/11/02 13:14:54;;;;;;;11.80;2.50;;;12.00;99.90;;;;;;5070456;28;20037;-85
2022/11/02 13:17:42;;;;;;;11.93;2.80;;;11.80;99.90;;;;;;5062027;28;20651;-85
2022/11/02 13:20:14;;;;;;;23.90;2.83;;;11.90;99.90;;;;;;5084012;28;20032;-85
2022/11/02 13:22:42;;;;;;;9.65;1.95;;;11.90;99.90;;;;;;5070994;28;20120;-85
2022/11/02 13:25:18;;;;;;;11.45;3.17;;;11.90;99.90;;;;;;5072114;28;20012;-85